Timeline UpdatesTrip UpdatesNews PostsPvt PostsTravel TipsAdmin PostsConv PostsFollowed PostsChat RequestsBlog PostsPNR Posts

Disclaimer
Search
 
 
Fri Aug 29, 2014 10:46:24 ISTHomeTrainsΣChainsAtlasPNRForumGalleryNewsFAQTripsMembersLoginFeedback
No Recent News for this Train
Other Trains in the News **new
Latest...
.
Sun Feb 23, 2014 (12:51AM)
⇐ Return Journey: Train# 59441

59442/Ahmedabad Mumbai Central Passenger

Feb 23 2014 (12:51AM)
Change Departure Station:
Change Arrival Station:
Post a Train Travel TipPost a Train Travel Tip **new
Post a Comment/Question/Picture/VideoPost a Comment/Question/Picture/Video
Pantry/Catering
✕ NO Pantry Car
✕ NO Catering
RSA - Rake Sharing
59439,59440,59441,59442,59461and 59462 all share rakes.
Rake/Coach Composition
3 Sleeper and unreserved coaches.; Sleeper coach from 59076 Bhusaval Surat passenger is attached to this train at Surat.; 2AC coach attached from Surat.
Loco
WCAM-1
News    PNR    Forum    Time-Table    Availability    Fare Chart    Map    Arr/Dep History    Trips    Gallery    ΣChains    X/O    Timeline    
Travel Time: 2h 21m    4 halts    Distance: 72 km    Avg Speed: 30 km/hr
Type: Passenger
Zone: WR/Western
Departs @ 02:14 (Avg 58m late)
Platform# 2
SMTWTFS
Saphale/SAH 
Arrives @ 04:35 (Avg 27m late)
Platform# 5
SMTWTFS
Mumbai Central/BCT 

4 halts. 25 intermediate Stations between Saphale and Mumbai Central

Show ALL intermediate Stations  Show Old Time-Table

#CodeStation NameX/OArrivesAvgDepartsAvgHaltPFDay#KmSpeedElevZoneAddress
1ADIAhmedabad Junction (12)  -12:40+1311-420.81751mWRAhmedabad, Gujarat
2MANManinagar (2)X  12:51+012:53+02m21-417.74850mWRAhmadabad, Gujarat
3VTAVatva (4)  12:59+1313:01+132m--1-412.92649mWRDist. Ahmedabad 382445, Gujarat
4GERGeratpur (2)  13:13+2313:14+241m--1-407.64044mWRAhmadabad, Gujarat
5BJDBarejadi Nandej (3)X  13:19+2413:21+272m--1-404.24442mWRBareja-Barejadi Rd, Gujarat
6KANJKanij (3)X  13:27+2913:29+342m--1-399.93439mWRBareja-Barejadi Rd, Gujarat
7NEPNenpur (2)  13:34-13:36-2m--1-397.05035mWRState Highway 3, Gujarat
8MHDMahemdavad Kheda Road (4)X  13:41+3713:43+372m--1-392.86237mWRMahemdavad, Gujarat
9GTEGothaj (2)  13:51+3913:53+412m--1-384.54632mWRState Highway 3, Gujarat
10NDNadiad Junction (4)  14:05+4214:10+395m31-375.34737mWRNadiad, Gujarat
11UTDUtarsanda (4)  14:17+4014:19+392m--1-369.84740mWRUttarsanda, Gujarat
12KBRVKanjari Boriyavi Junction (4)  14:26+4014:28+402m--1-364.34039mWRKanjari, Gujarat
13ANNDAnand Junction (6)X  14:39+3914:44+375m11-356.85244mWRAnand, Gujarat
14VXDVadod (3)  14:52+3814:54+382m--1-350.04144mWRAnand District, Gujarat
15ADDAdas Road (4)  15:00+3815:02+382m--1-345.94642mWRNational Highway 8, Gujarat
16VDAVasad Junction (3)  15:08+4015:10+412m--1-341.35040mWRVasad, Gujarat
17NDRNandesari (2)  15:16-15:18-2m--1-336.34142mWRNandesari, Gujarat
18RNORanoli (2)  15:24+3915:26+402m--1-332.12139mWRVadodara District, Gujarat
19BJWBajva (3)X  15:37+4115:39+422m--1-328.31938mWRVadodara, Gujarat
20BRCVadodara Junction (7)XO  16:02+4316:22+1:0920m31-321.12636mWRVadodara 390005, Gujarat
21VSVishvamitri (4)X  16:29+1:1316:31+1:132m--1-318.14930mWRVadodara, Gujarat
22MPRMakarpura (4)X  16:38+1:1316:40+1:152m--1-312.45630mWRVadodara, Gujarat
23VRMVarnama (2)XO  16:46+1:1616:48+1:182m--1-306.82128mWRVadodara, Gujarat
24ITAItola (4)  16:59+1:1417:01+1:152m--1-302.83827mWRNational Highway 8 Vadodara, Gujarat
25KSPRKashipura Sarar (2)XO  17:07+1:1517:09+1:162m--1-299.04726mWRGIDC Industrial Area, Gujarat
26MYGMiyagam Karjan (2)X  17:19+1:1617:21+1:152m11-291.26029mWRKarjan, Gujarat
27LKDLakodara (4)XO  17:29+1:1617:31+1:172m--1-283.25426mWRNH 8, Gujarat
28PLJPalej (4)  17:39+1:1817:41+1:192m--1-276.05729mWRPalej, Gujarat
29VREVarediya (4)X  17:48+1:1917:50+1:222m--1-269.45821mWRNH 8, Gujarat
30NIUNabipur (3)X  17:57+1:2317:59+1:232m--1-262.66124mWRNabipur, Gujarat
31CVJChavaj (2)X  18:06+1:2418:08+1:232m--1-255.62520mWRBharuch, Gujarat
32BHBharuch Junction (5)X  18:20+1:1918:25+1:205m51-250.66219mWRBharuch, Gujarat
33AKVAnkleshwar Junction (4)XO  18:34+1:2218:36+1:242m21-241.22519mWRAnkleshwar, Gujarat
34PAOPanoli (3)X  19:01+1:1619:03+1:172m--1-230.91529mWRPanoli, Gujarat
35HATHathuran (2)XO  19:18-19:19-1m--1-227.15232mWRKosamba, Gujarat
36KSBKosamba Junction (3)XO  19:24+1:0719:26+1:072m--1-222.75830mWRKosamba, Gujarat
37KIMKim (2)O  19:34+1:0819:36+1:102m--1-214.93018mWRNH 8, Gujarat
38SYNSayan (3)XO  19:56+1:0419:58+1:052m--1-205.01221mWRSayan Satellite town, Gujarat
39GTXGothangam (2)XO  20:13+5620:14+571m--1-202.01819mWRAmroli Sayan Rd, Gujarat
40KSEKosad (2)XO  20:26+5120:28+502m--1-198.3917mWRSurat, Gujarat
41URNUtran (3)X  20:50+3620:52+372m--1-195.22915mWRSurat, Gujarat
42STSurat (4)XO  21:00+3721:30+4730m31-191.33419mWRSurat 395001, Gujarat
43UDNUdhna Junction (3)  21:37+5521:38+561m21-187.33616mWRUdhna 394210, Gujarat
44BHETBhestan (2)X  21:46+5621:47+571m21-182.54913mWRSurat, Gujarat
45SCHSachin (3)XO  21:54+5721:55+571m--1-176.85011mWRKansad Road Sachin, Gujarat
46MRLMaroli (3)  22:03+5722:04+581m--1-170.17215mWRMaroli, Gujarat
47NVSNavsari (3)X  22:11+5822:13+582m--1-161.74514mWRNavsari, Gujarat
48GNSTGandhi Smriti (2)O  22:17-22:19-2m--1-158.76516mWRGandhi Smriti Navsari, Gujarat
49VDHVedchha (3)XO  22:24+5922:26+592m--1-153.23413mWRNavsari, Gujarat
50ACLAncheli (2)X  22:32-22:33-1m--1-149.95720mWRNavsari, Gujarat
51AMLAmalsad (3)  22:37+5822:39+582m--1-146.15612mWRAmalsad, Gujarat
52BIMBilimora Junction (4)O  22:45+5622:47+562m--1-140.55411mWRBilimora, Gujarat
53DGIDungri (3)X  22:57+5722:58+571m--1-131.52420mWRNH 8, Gujarat
54BLValsad (3)X  23:20+4723:30+4610m31-122.66415mWRValsad, Gujarat
55PADPardi (3)X  23:40+5023:42+502m--1-111.96019mWRValsad, Gujarat
56UVDUdvada (3)  23:48+5023:50+532m--1-105.95218mWRUdvada, Gujarat
57VAPIVapi (3)XO  00:01+5300:02+551m--2-96.35527mWRVapi, Gujarat
58KEBKarambeli (2)X  00:09-00:11-2m--2-89.94829mWRNational Highway 8, Gujarat
59BLDBhilad (3)X  00:17+5800:19+572m--2-85.16933mWRBhilad, Gujarat
60SJNSanjan (3)X  00:29+5800:31+592m--2-73.55422mWRSanjan, Gujarat
61UBRUmbargam Road (3)X  00:37+5900:39+1:002m--2-68.16930mWRUmbergaon, Gujarat
62GVDGholvad (4)XO  00:47+1:0200:50+1:023m--2-59.04814mWRGholvad, Maharashtra
63DRDDahanu Road (5)XO  01:04+1:0101:08+594m--2-47.86212mWRDahanu, Maharashtra
64VGNVangaon (3)XO  01:20+5801:23+583m--2-35.57111mWRDist. Palghar, Maharashtra
65BORBoisar (3)X  01:31+1:0001:34+593m32-26.15217mWRBoisar Tel.no-02525-266626, Maharashtra
66PLGPalghar (3)  01:47+5701:50+593m--2-14.84619mWRPalghar, Maharashtra
67KLVKelve Road (3)O  02:01+5702:03+1:002m--2-6.44810mWRDist. Palghar, Maharashtra
68SAH»Saphale (2)»O  02:11+1:0002:14+583m220.0328mWRDist. Palghar, Maharashtra
69VRVirar (8)  02:45+4602:50+445m--216.3466mWRDist. Palghar, Maharashtra
70BSRVasai Road (7)  03:01+4203:03+422m5224.7617mWRVasai 401202, Maharashtra
71BVIMumbai Borivali (8)  03:20+4003:25+405m5242.13819mWRMumbai - 400092, Maharashtra
72DDRMumbai Dadar Western (6)  04:02+3104:05+343m5265.9126mWRMumbai, Maharashtra
73BCT•Mumbai Central (9)•  04:35+27-5271.8-3mWRMumbai 400008, Maharashtra
Scroll to Top
Scroll to Bottom